sensor_id;sensor_type;location;lat;lon;timestamp;temperature;humidity
19359;DHT22;9815;52.334;20.890;2023-07-30T00:00:17;17.80;99.90
19359;DHT22;9815;52.334;20.890;2023-07-30T00:02:46;17.80;99.90
19359;DHT22;9815;52.334;20.890;2023-07-30T00:05:14;17.70;99.90
19359;DHT22;9815;52.334;20.890;2023-07-30T00:07:42;17.70;99.90
19359;DHT22;9815;52.334;20.890;2023-07-30T00:10:10;17.60;99.90
19359;DHT22;9815;52.334;20.890;2023-07-30T00:12:39;17.60;99.90
19359;DHT22;9815;52.334;20.890;2023-07-30T00:15:09;17.60;99.90
19359;DHT22;9815;52.334;20.890;2023-07-30T00:17:39;17.60;99.90
19359;DHT22;9815;52.334;20.890;2023-07-30T00:20:08;17.60;99.90
19359;DHT22;9815;52.334;20.890;2023-07-30T00:22:37;17.60;99.90
19359;DHT22;9815;52.334;20.890;2023-07-30T00:25:05;17.60;99.90
19359;DHT22;9815;52.334;20.890;2023-07-30T00:27:35;17.60;99.90
19359;DHT22;9815;52.334;20.890;2023-07-30T00:30:04;17.50;99.90
19359;DHT22;9815;52.334;20.890;2023-07-30T00:32:34;17.60;99.90
19359;DHT22;9815;52.334;20.890;2023-07-30T00:35:03;17.60;99.90
19359;DHT22;9815;52.334;20.890;2023-07-30T00:37:32;17.60;99.90
19359;DHT22;9815;52.334;20.890;2023-07-30T00:40:00;17.60;99.90
19359;DHT22;9815;52.334;20.890;2023-07-30T00:42:28;17.60;99.90
19359;DHT22;9815;52.334;20.890;2023-07-30T00:44:57;17.60;99.90
19359;DHT22;9815;52.334;20.890;2023-07-30T00:47:26;17.70;99.90
19359;DHT22;9815;52.334;20.890;2023-07-30T00:49:56;17.60;99.90
19359;DHT22;9815;52.334;20.890;2023-07-30T00:52:25;17.70;99.90
19359;DHT22;9815;52.334;20.890;2023-07-30T00:54:54;17.70;99.90
19359;DHT22;9815;52.334;20.890;2023-07-30T00:57:25;17.70;99.90
19359;DHT22;9815;52.334;20.890;2023-07-30T00:59:54;17.70;99.90
19359;DHT22;9815;52.334;20.890;2023-07-30T01:02:23;17.70;99.90
19359;DHT22;9815;52.334;20.890;2023-07-30T01:04:52;17.70;99.90
19359;DHT22;9815;52.334;20.890;2023-07-30T01:07:22;17.80;99.90
19359;DHT22;9815;52.334;20.890;2023-07-30T01:09:50;17.80;99.90
19359;DHT22;9815;52.334;20.890;2023-07-30T01:12:18;17.80;99.90
19359;DHT22;9815;52.334;20.890;2023-07-30T01:14:48;17.80;99.90
19359;DHT22;9815;52.334;20.890;2023-07-30T01:17:17;17.70;99.90
19359;DHT22;9815;52.334;20.890;2023-07-30T01:19:46;17.70;99.90
19359;DHT22;9815;52.334;20.890;2023-07-30T01:22:18;17.80;99.90
19359;DHT22;9815;52.334;20.890;2023-07-30T01:24:46;17.70;99.90
19359;DHT22;9815;52.334;20.890;2023-07-30T01:27:25;17.70;99.90
19359;DHT22;9815;52.334;20.890;2023-07-30T01:30:02;17.70;99.90
19359;DHT22;9815;52.334;20.890;2023-07-30T01:32:32;17.60;99.90
19359;DHT22;9815;52.334;20.890;2023-07-30T01:35:02;17.60;99.90
19359;DHT22;9815;52.334;20.890;2023-07-30T01:37:33;17.60;99.90
19359;DHT22;9815;52.334;20.890;2023-07-30T01:40:02;17.60;99.90
19359;DHT22;9815;52.334;20.890;2023-07-30T01:42:30;17.60;99.90
19359;DHT22;9815;52.334;20.890;2023-07-30T01:44:59;17.60;99.90
19359;DHT22;9815;52.334;20.890;2023-07-30T01:47:27;17.60;99.90
19359;DHT22;9815;52.334;20.890;2023-07-30T01:49:56;17.60;99.90
19359;DHT22;9815;52.334;20.890;2023-07-30T01:52:24;17.50;99.90
19359;DHT22;9815;52.334;20.890;2023-07-30T01:54:54;17.60;99.90
19359;DHT22;9815;52.334;20.890;2023-07-30T01:57:25;17.50;99.90
19359;DHT22;9815;52.334;20.890;2023-07-30T01:59:53;17.50;99.90
19359;DHT22;9815;52.334;20.890;2023-07-30T02:02:22;17.50;99.90
19359;DHT22;9815;52.334;20.890;2023-07-30T02:04:50;17.50;99.90
19359;DHT22;9815;52.334;20.890;2023-07-30T02:07:19;17.50;99.90
19359;DHT22;9815;52.334;20.890;2023-07-30T02:09:47;17.50;99.90
19359;DHT22;9815;52.334;20.890;2023-07-30T02:12:17;17.50;99.90
19359;DHT22;9815;52.334;20.890;2023-07-30T02:14:45;17.50;99.90
19359;DHT22;9815;52.334;20.890;2023-07-30T02:17:13;17.40;99.90
19359;DHT22;9815;52.334;20.890;2023-07-30T02:19:43;17.40;99.90
19359;DHT22;9815;52.334;20.890;2023-07-30T02:22:11;17.40;99.90
19359;DHT22;9815;52.334;20.890;2023-07-30T02:24:41;17.40;99.90
19359;DHT22;9815;52.334;20.890;2023-07-30T02:27:09;17.40;99.90
19359;DHT22;9815;52.334;20.890;2023-07-30T02:29:39;17.40;99.90
19359;DHT22;9815;52.334;20.890;2023-07-30T02:32:08;17.40;99.90
19359;DHT22;9815;52.334;20.890;2023-07-30T02:34:36;17.40;99.90
19359;DHT22;9815;52.334;20.890;2023-07-30T02:37:05;17.40;99.90
19359;DHT22;9815;52.334;20.890;2023-07-30T02:39:33;17.40;99.90
19359;DHT22;9815;52.334;20.890;2023-07-30T02:42:01;17.40;99.90
19359;DHT22;9815;52.334;20.890;2023-07-30T02:44:30;17.40;99.90
19359;DHT22;9815;52.334;20.890;2023-07-30T02:46:59;17.40;99.90
19359;DHT22;9815;52.334;20.890;2023-07-30T02:49:27;17.40;99.90
19359;DHT22;9815;52.334;20.890;2023-07-30T02:51:56;17.40;99.90
19359;DHT22;9815;52.334;20.890;2023-07-30T02:54:24;17.40;99.90
19359;DHT22;9815;52.334;20.890;2023-07-30T02:56:52;17.40;99.90
19359;DHT22;9815;52.334;20.890;2023-07-30T02:59:21;17.40;99.90
19359;DHT22;9815;52.334;20.890;2023-07-30T03:01:49;17.40;99.90
19359;DHT22;9815;52.334;20.890;2023-07-30T03:04:19;17.40;99.90
19359;DHT22;9815;52.334;20.890;2023-07-30T03:06:47;17.40;99.90
19359;DHT22;9815;52.334;20.890;2023-07-30T03:09:16;17.40;99.90
19359;DHT22;9815;52.334;20.890;2023-07-30T03:11:44;17.40;99.90
19359;DHT22;9815;52.334;20.890;2023-07-30T03:14:13;17.40;99.90
19359;DHT22;9815;52.334;20.890;2023-07-30T03:16:41;17.40;99.90
19359;DHT22;9815;52.334;20.890;2023-07-30T03:19:10;17.40;99.90
19359;DHT22;9815;52.334;20.890;2023-07-30T03:21:40;17.40;99.90
19359;DHT22;9815;52.334;20.890;2023-07-30T03:24:08;17.40;99.90
19359;DHT22;9815;52.334;20.890;2023-07-30T03:26:36;17.40;99.90
19359;DHT22;9815;52.334;20.890;2023-07-30T03:29:05;17.40;99.90
19359;DHT22;9815;52.334;20.890;2023-07-30T03:31:33;17.40;99.90
19359;DHT22;9815;52.334;20.890;2023-07-30T03:34:02;17.40;99.90
19359;DHT22;9815;52.334;20.890;2023-07-30T03:36:30;17.40;99.90
19359;DHT22;9815;52.334;20.890;2023-07-30T03:39:00;17.40;99.90
19359;DHT22;9815;52.334;20.890;2023-07-30T03:41:28;17.40;99.90
19359;DHT22;9815;52.334;20.890;2023-07-30T03:43:57;17.50;99.90
19359;DHT22;9815;52.334;20.890;2023-07-30T03:46:25;17.40;99.90
19359;DHT22;9815;52.334;20.890;2023-07-30T03:48:54;17.40;99.90
19359;DHT22;9815;52.334;20.890;2023-07-30T03:51:22;17.40;99.90
19359;DHT22;9815;52.334;20.890;2023-07-30T03:53:51;17.40;99.90
19359;DHT22;9815;52.334;20.890;2023-07-30T03:56:21;17.40;99.90
19359;DHT22;9815;52.334;20.890;2023-07-30T03:58:49;17.40;99.90
19359;DHT22;9815;52.334;20.890;2023-07-30T04:01:18;17.40;99.90
19359;DHT22;9815;52.334;20.890;2023-07-30T04:03:46;17.50;99.90
19359;DHT22;9815;52.334;20.890;2023-07-30T04:06:15;17.50;99.90
19359;DHT22;9815;52.334;20.890;2023-07-30T04:08:43;17.50;99.90
19359;DHT22;9815;52.334;20.890;2023-07-30T04:11:11;17.50;99.90
19359;DHT22;9815;52.334;20.890;2023-07-30T04:13:41;17.50;99.90
19359;DHT22;9815;52.334;20.890;2023-07-30T04:16:10;17.60;99.90
19359;DHT22;9815;52.334;20.890;2023-07-30T04:18:38;17.60;99.90
19359;DHT22;9815;52.334;20.890;2023-07-30T04:21:06;17.60;99.90
19359;DHT22;9815;52.334;20.890;2023-07-30T04:23:35;17.60;99.90
19359;DHT22;9815;52.334;20.890;2023-07-30T04:26:04;17.50;99.90
19359;DHT22;9815;52.334;20.890;2023-07-30T04:28:32;17.50;99.90
19359;DHT22;9815;52.334;20.890;2023-07-30T04:31:02;17.50;99.90
19359;DHT22;9815;52.334;20.890;2023-07-30T04:33:31;17.50;99.90
19359;DHT22;9815;52.334;20.890;2023-07-30T04:36:00;17.50;99.90
19359;DHT22;9815;52.334;20.890;2023-07-30T04:38:29;17.50;99.90
19359;DHT22;9815;52.334;20.890;2023-07-30T04:40:58;17.50;99.90
19359;DHT22;9815;52.334;20.890;2023-07-30T04:43:29;17.50;99.90
19359;DHT22;9815;52.334;20.890;2023-07-30T04:45:57;17.40;99.90
19359;DHT22;9815;52.334;20.890;2023-07-30T04:48:27;17.50;99.90
19359;DHT22;9815;52.334;20.890;2023-07-30T04:50:56;17.50;99.90
19359;DHT22;9815;52.334;20.890;2023-07-30T04:53:24;17.40;99.90
19359;DHT22;9815;52.334;20.890;2023-07-30T04:55:55;17.50;99.90
19359;DHT22;9815;52.334;20.890;2023-07-30T04:58:24;17.50;99.90
19359;DHT22;9815;52.334;20.890;2023-07-30T05:00:53;17.50;99.90
19359;DHT22;9815;52.334;20.890;2023-07-30T05:03:22;17.60;99.90
19359;DHT22;9815;52.334;20.890;2023-07-30T05:05:52;17.50;99.90
19359;DHT22;9815;52.334;20.890;2023-07-30T05:08:20;17.60;99.90
19359;DHT22;9815;52.334;20.890;2023-07-30T05:10:48;17.60;99.90
19359;DHT22;9815;52.334;20.890;2023-07-30T05:13:17;17.60;99.90
19359;DHT22;9815;52.334;20.890;2023-07-30T05:15:45;17.70;99.90
19359;DHT22;9815;52.334;20.890;2023-07-30T05:18:14;17.70;99.90
19359;DHT22;9815;52.334;20.890;2023-07-30T05:20:42;17.70;99.90
19359;DHT22;9815;52.334;20.890;2023-07-30T05:23:12;17.80;99.90
19359;DHT22;9815;52.334;20.890;2023-07-30T05:25:40;17.80;99.90
19359;DHT22;9815;52.334;20.890;2023-07-30T05:28:08;17.90;99.90
19359;DHT22;9815;52.334;20.890;2023-07-30T05:30:37;17.90;99.90
19359;DHT22;9815;52.334;20.890;2023-07-30T05:33:05;18.00;99.90
19359;DHT22;9815;52.334;20.890;2023-07-30T05:35:33;18.00;99.90
19359;DHT22;9815;52.334;20.890;2023-07-30T05:38:02;17.90;99.90
19359;DHT22;9815;52.334;20.890;2023-07-30T05:40:31;18.00;99.90
19359;DHT22;9815;52.334;20.890;2023-07-30T05:43:00;18.00;99.90
19359;DHT22;9815;52.334;20.890;2023-07-30T05:45:29;18.10;99.90
19359;DHT22;9815;52.334;20.890;2023-07-30T05:47:57;18.20;99.90
19359;DHT22;9815;52.334;20.890;2023-07-30T05:50:25;18.20;99.90
19359;DHT22;9815;52.334;20.890;2023-07-30T05:52:54;18.30;99.90
19359;DHT22;9815;52.334;20.890;2023-07-30T05:55:22;18.30;99.90
19359;DHT22;9815;52.334;20.890;2023-07-30T05:57:52;18.40;99.90
19359;DHT22;9815;52.334;20.890;2023-07-30T06:00:22;18.50;99.90
19359;DHT22;9815;52.334;20.890;2023-07-30T06:02:51;18.50;99.90
19359;DHT22;9815;52.334;20.890;2023-07-30T06:05:19;18.50;99.90
19359;DHT22;9815;52.334;20.890;2023-07-30T06:07:47;18.60;99.90
19359;DHT22;9815;52.334;20.890;2023-07-30T06:10:16;18.60;99.90
19359;DHT22;9815;52.334;20.890;2023-07-30T06:12:44;18.50;99.90
19359;DHT22;9815;52.334;20.890;2023-07-30T06:15:14;18.60;99.90
19359;DHT22;9815;52.334;20.890;2023-07-30T06:17:42;18.60;99.90
19359;DHT22;9815;52.334;20.890;2023-07-30T06:20:11;18.60;99.90
19359;DHT22;9815;52.334;20.890;2023-07-30T06:22:40;18.50;99.90
19359;DHT22;9815;52.334;20.890;2023-07-30T06:25:08;18.50;99.90
19359;DHT22;9815;52.334;20.890;2023-07-30T06:27:36;18.60;99.90
19359;DHT22;9815;52.334;20.890;2023-07-30T06:30:06;18.70;99.90
19359;DHT22;9815;52.334;20.890;2023-07-30T06:32:36;18.70;99.90
19359;DHT22;9815;52.334;20.890;2023-07-30T06:35:06;18.70;99.90
19359;DHT22;9815;52.334;20.890;2023-07-30T06:37:34;18.80;99.90
19359;DHT22;9815;52.334;20.890;2023-07-30T06:40:03;18.90;99.90
19359;DHT22;9815;52.334;20.890;2023-07-30T06:42:33;19.00;99.90
19359;DHT22;9815;52.334;20.890;2023-07-30T06:45:01;19.00;99.90
19359;DHT22;9815;52.334;20.890;2023-07-30T06:47:30;18.80;99.90
19359;DHT22;9815;52.334;20.890;2023-07-30T06:50:04;18.80;99.90
19359;DHT22;9815;52.334;20.890;2023-07-30T06:52:37;18.80;99.90
19359;DHT22;9815;52.334;20.890;2023-07-30T06:55:08;18.90;99.90
19359;DHT22;9815;52.334;20.890;2023-07-30T06:57:37;18.90;99.90
19359;DHT22;9815;52.334;20.890;2023-07-30T07:00:06;19.00;99.90
19359;DHT22;9815;52.334;20.890;2023-07-30T07:02:35;19.00;99.90
19359;DHT22;9815;52.334;20.890;2023-07-30T07:05:07;19.20;99.90
19359;DHT22;9815;52.334;20.890;2023-07-30T07:07:39;19.30;99.90
19359;DHT22;9815;52.334;20.890;2023-07-30T07:10:12;19.30;99.90
19359;DHT22;9815;52.334;20.890;2023-07-30T07:12:41;19.30;99.90
19359;DHT22;9815;52.334;20.890;2023-07-30T07:15:10;19.30;99.90
19359;DHT22;9815;52.334;20.890;2023-07-30T07:17:39;19.20;99.90
19359;DHT22;9815;52.334;20.890;2023-07-30T07:20:09;19.20;99.90
19359;DHT22;9815;52.334;20.890;2023-07-30T07:22:38;19.20;99.90
19359;DHT22;9815;52.334;20.890;2023-07-30T07:25:07;19.20;99.90
19359;DHT22;9815;52.334;20.890;2023-07-30T07:27:35;19.20;99.90
19359;DHT22;9815;52.334;20.890;2023-07-30T07:30:05;19.30;99.90
19359;DHT22;9815;52.334;20.890;2023-07-30T07:32:33;19.40;99.90
19359;DHT22;9815;52.334;20.890;2023-07-30T07:35:06;19.60;99.90
19359;DHT22;9815;52.334;20.890;2023-07-30T07:37:36;19.60;99.90
19359;DHT22;9815;52.334;20.890;2023-07-30T07:40:05;19.60;99.90
19359;DHT22;9815;52.334;20.890;2023-07-30T07:42:37;19.60;99.90
19359;DHT22;9815;52.334;20.890;2023-07-30T07:45:07;19.70;99.90
19359;DHT22;9815;52.334;20.890;2023-07-30T07:47:35;19.90;99.90
19359;DHT22;9815;52.334;20.890;2023-07-30T07:50:04;19.90;99.90
19359;DHT22;9815;52.334;20.890;2023-07-30T07:52:33;19.90;99.90
19359;DHT22;9815;52.334;20.890;2023-07-30T07:55:03;19.90;99.90
19359;DHT22;9815;52.334;20.890;2023-07-30T07:57:31;19.90;99.90
19359;DHT22;9815;52.334;20.890;2023-07-30T08:00:04;20.10;99.90
19359;DHT22;9815;52.334;20.890;2023-07-30T08:02:37;20.30;99.90
19359;DHT22;9815;52.334;20.890;2023-07-30T08:05:06;20.50;99.90
19359;DHT22;9815;52.334;20.890;2023-07-30T08:07:35;20.40;99.90
19359;DHT22;9815;52.334;20.890;2023-07-30T08:10:06;20.70;99.90
19359;DHT22;9815;52.334;20.890;2023-07-30T08:12:35;20.90;99.90
19359;DHT22;9815;52.334;20.890;2023-07-30T08:15:07;20.90;99.90
19359;DHT22;9815;52.334;20.890;2023-07-30T08:17:35;20.80;99.90
19359;DHT22;9815;52.334;20.890;2023-07-30T08:20:04;20.70;99.90
19359;DHT22;9815;52.334;20.890;2023-07-30T08:22:33;20.90;99.90
19359;DHT22;9815;52.334;20.890;2023-07-30T08:25:02;21.40;99.90
19359;DHT22;9815;52.334;20.890;2023-07-30T08:27:32;21.50;99.90
19359;DHT22;9815;52.334;20.890;2023-07-30T08:30:00;21.40;99.90
19359;DHT22;9815;52.334;20.890;2023-07-30T08:32:29;21.70;99.90
19359;DHT22;9815;52.334;20.890;2023-07-30T08:34:57;21.90;99.90
19359;DHT22;9815;52.334;20.890;2023-07-30T08:37:25;21.50;99.90
19359;DHT22;9815;52.334;20.890;2023-07-30T08:39:54;21.60;99.90
19359;DHT22;9815;52.334;20.890;2023-07-30T08:42:22;21.30;99.90
19359;DHT22;9815;52.334;20.890;2023-07-30T08:44:52;21.00;99.90
19359;DHT22;9815;52.334;20.890;2023-07-30T08:47:21;21.10;99.90
19359;DHT22;9815;52.334;20.890;2023-07-30T08:49:52;21.40;99.90
19359;DHT22;9815;52.334;20.890;2023-07-30T08:52:21;21.90;99.90
19359;DHT22;9815;52.334;20.890;2023-07-30T08:54:51;21.90;99.90
19359;DHT22;9815;52.334;20.890;2023-07-30T08:57:20;21.70;99.90
19359;DHT22;9815;52.334;20.890;2023-07-30T08:59:52;21.90;99.90
19359;DHT22;9815;52.334;20.890;2023-07-30T09:02:26;22.10;99.90
19359;DHT22;9815;52.334;20.890;2023-07-30T09:04:58;22.50;99.90
19359;DHT22;9815;52.334;20.890;2023-07-30T09:07:28;22.80;99.90
19359;DHT22;9815;52.334;20.890;2023-07-30T09:09:56;23.00;99.90
19359;DHT22;9815;52.334;20.890;2023-07-30T09:12:32;22.80;99.90
19359;DHT22;9815;52.334;20.890;2023-07-30T09:15:02;22.70;99.90
19359;DHT22;9815;52.334;20.890;2023-07-30T09:17:31;22.70;99.90
19359;DHT22;9815;52.334;20.890;2023-07-30T09:20:04;22.80;99.90
19359;DHT22;9815;52.334;20.890;2023-07-30T09:22:34;22.90;99.90
19359;DHT22;9815;52.334;20.890;2023-07-30T09:25:07;23.10;99.90
19359;DHT22;9815;52.334;20.890;2023-07-30T09:27:36;23.60;99.90
19359;DHT22;9815;52.334;20.890;2023-07-30T09:30:07;24.20;94.80
19359;DHT22;9815;52.334;20.890;2023-07-30T09:32:35;23.80;98.80
19359;DHT22;9815;52.334;20.890;2023-07-30T09:35:07;23.30;98.80
19359;DHT22;9815;52.334;20.890;2023-07-30T09:37:38;22.90;99.90
19359;DHT22;9815;52.334;20.890;2023-07-30T09:40:07;23.00;99.90
19359;DHT22;9815;52.334;20.890;2023-07-30T09:42:37;23.40;94.70
19359;DHT22;9815;52.334;20.890;2023-07-30T09:45:09;24.00;88.30
19359;DHT22;9815;52.334;20.890;2023-07-30T09:47:46;24.40;76.90
19359;DHT22;9815;52.334;20.890;2023-07-30T09:50:15;24.70;72.60
19359;DHT22;9815;52.334;20.890;2023-07-30T09:52:44;24.60;73.50
19359;DHT22;9815;52.334;20.890;2023-07-30T09:55:12;25.00;60.90
19359;DHT22;9815;52.334;20.890;2023-07-30T09:57:41;25.10;60.20
19359;DHT22;9815;52.334;20.890;2023-07-30T10:00:11;25.10;57.50
19359;DHT22;9815;52.334;20.890;2023-07-30T10:02:41;24.50;60.60
19359;DHT22;9815;52.334;20.890;2023-07-30T10:05:14;24.40;66.50
19359;DHT22;9815;52.334;20.890;2023-07-30T10:07:56;24.60;70.30
19359;DHT22;9815;52.334;20.890;2023-07-30T10:10:28;24.90;53.50
19359;DHT22;9815;52.334;20.890;2023-07-30T10:13:00;25.10;58.40
19359;DHT22;9815;52.334;20.890;2023-07-30T10:15:34;25.40;56.10
19359;DHT22;9815;52.334;20.890;2023-07-30T10:18:02;25.60;48.80
19359;DHT22;9815;52.334;20.890;2023-07-30T10:20:32;25.70;49.90
19359;DHT22;9815;52.334;20.890;2023-07-30T10:23:00;26.10;44.80
19359;DHT22;9815;52.334;20.890;2023-07-30T10:25:30;25.90;45.80
19359;DHT22;9815;52.334;20.890;2023-07-30T10:28:11;26.00;47.90
19359;DHT22;9815;52.334;20.890;2023-07-30T10:30:59;26.40;45.90
19359;DHT22;9815;52.334;20.890;2023-07-30T10:33:45;26.50;43.70
19359;DHT22;9815;52.334;20.890;2023-07-30T10:36:14;26.40;44.50
19359;DHT22;9815;52.334;20.890;2023-07-30T10:38:44;26.60;39.30
19359;DHT22;9815;52.334;20.890;2023-07-30T10:41:13;26.80;40.20
19359;DHT22;9815;52.334;20.890;2023-07-30T10:43:46;26.90;39.60
19359;DHT22;9815;52.334;20.890;2023-07-30T10:46:17;26.60;38.60
19359;DHT22;9815;52.334;20.890;2023-07-30T10:48:47;26.30;39.10
19359;DHT22;9815;52.334;20.890;2023-07-30T10:51:17;26.00;41.00
19359;DHT22;9815;52.334;20.890;2023-07-30T10:53:48;25.70;41.60
19359;DHT22;9815;52.334;20.890;2023-07-30T10:56:20;25.30;42.60
19359;DHT22;9815;52.334;20.890;2023-07-30T10:58:50;25.20;45.10
19359;DHT22;9815;52.334;20.890;2023-07-30T11:01:20;25.30;50.00
19359;DHT22;9815;52.334;20.890;2023-07-30T11:03:52;25.80;41.20
19359;DHT22;9815;52.334;20.890;2023-07-30T11:06:24;26.20;40.50
19359;DHT22;9815;52.334;20.890;2023-07-30T11:08:53;26.30;36.20
19359;DHT22;9815;52.334;20.890;2023-07-30T11:11:22;26.00;35.10
19359;DHT22;9815;52.334;20.890;2023-07-30T11:13:52;26.30;36.80
19359;DHT22;9815;52.334;20.890;2023-07-30T11:16:22;26.30;41.30
19359;DHT22;9815;52.334;20.890;2023-07-30T11:18:50;26.80;36.60
19359;DHT22;9815;52.334;20.890;2023-07-30T11:21:18;26.90;31.80
19359;DHT22;9815;52.334;20.890;2023-07-30T11:23:47;27.30;29.60
19359;DHT22;9815;52.334;20.890;2023-07-30T11:26:16;27.70;30.00
19359;DHT22;9815;52.334;20.890;2023-07-30T11:28:46;27.90;30.00
19359;DHT22;9815;52.334;20.890;2023-07-30T11:31:17;27.50;29.70
19359;DHT22;9815;52.334;20.890;2023-07-30T11:33:49;26.90;30.30
19359;DHT22;9815;52.334;20.890;2023-07-30T11:36:19;26.20;33.60
19359;DHT22;9815;52.334;20.890;2023-07-30T11:38:48;25.70;37.40
19359;DHT22;9815;52.334;20.890;2023-07-30T11:41:17;25.40;37.60
19359;DHT22;9815;52.334;20.890;2023-07-30T11:43:46;25.20;43.40
19359;DHT22;9815;52.334;20.890;2023-07-30T11:46:15;25.10;42.50
19359;DHT22;9815;52.334;20.890;2023-07-30T11:48:46;25.40;41.60
19359;DHT22;9815;52.334;20.890;2023-07-30T11:51:24;25.70;42.10
19359;DHT22;9815;52.334;20.890;2023-07-30T11:53:54;25.60;41.40
19359;DHT22;9815;52.334;20.890;2023-07-30T11:56:25;25.40;44.70
19359;DHT22;9815;52.334;20.890;2023-07-30T11:58:55;25.20;47.20
19359;DHT22;9815;52.334;20.890;2023-07-30T12:01:26;25.10;52.90
19359;DHT22;9815;52.334;20.890;2023-07-30T12:03:55;24.90;56.00
19359;DHT22;9815;52.334;20.890;2023-07-30T12:06:38;24.80;48.10
19359;DHT22;9815;52.334;20.890;2023-07-30T12:09:10;25.50;50.10
19359;DHT22;9815;52.334;20.890;2023-07-30T12:11:46;26.10;43.30
19359;DHT22;9815;52.334;20.890;2023-07-30T12:14:15;26.20;43.00
19359;DHT22;9815;52.334;20.890;2023-07-30T12:16:43;26.40;44.00
19359;DHT22;9815;52.334;20.890;2023-07-30T12:19:14;26.90;38.70
19359;DHT22;9815;52.334;20.890;2023-07-30T12:21:43;27.30;37.20
19359;DHT22;9815;52.334;20.890;2023-07-30T12:24:12;27.60;33.20
19359;DHT22;9815;52.334;20.890;2023-07-30T12:26:41;27.50;32.50
19359;DHT22;9815;52.334;20.890;2023-07-30T12:29:09;27.50;37.80
19359;DHT22;9815;52.334;20.890;2023-07-30T12:31:37;27.70;31.20
19359;DHT22;9815;52.334;20.890;2023-07-30T12:34:06;27.70;31.60
19359;DHT22;9815;52.334;20.890;2023-07-30T12:36:34;27.80;30.00
19359;DHT22;9815;52.334;20.890;2023-07-30T12:39:04;27.90;31.70
19359;DHT22;9815;52.334;20.890;2023-07-30T12:41:32;28.00;28.10
19359;DHT22;9815;52.334;20.890;2023-07-30T12:44:01;28.10;31.00
19359;DHT22;9815;52.334;20.890;2023-07-30T12:46:30;28.30;30.80
19359;DHT22;9815;52.334;20.890;2023-07-30T12:49:00;28.70;29.50
19359;DHT22;9815;52.334;20.890;2023-07-30T12:51:31;29.00;27.50
19359;DHT22;9815;52.334;20.890;2023-07-30T12:53:59;28.80;26.00
19359;DHT22;9815;52.334;20.890;2023-07-30T12:56:29;28.70;25.80
19359;DHT22;9815;52.334;20.890;2023-07-30T12:58:57;28.70;26.10
19359;DHT22;9815;52.334;20.890;2023-07-30T13:01:27;28.50;26.60
19359;DHT22;9815;52.334;20.890;2023-07-30T13:03:55;28.10;27.30
19359;DHT22;9815;52.334;20.890;2023-07-30T13:06:24;27.90;28.20
19359;DHT22;9815;52.334;20.890;2023-07-30T13:08:52;28.10;28.10
19359;DHT22;9815;52.334;20.890;2023-07-30T13:11:21;27.70;28.20
19359;DHT22;9815;52.334;20.890;2023-07-30T13:13:51;27.10;28.90
19359;DHT22;9815;52.334;20.890;2023-07-30T13:16:19;26.30;30.80
19359;DHT22;9815;52.334;20.890;2023-07-30T13:18:47;25.90;33.50
19359;DHT22;9815;52.334;20.890;2023-07-30T13:21:16;25.60;36.20
19359;DHT22;9815;52.334;20.890;2023-07-30T13:23:44;25.40;45.10
19359;DHT22;9815;52.334;20.890;2023-07-30T13:26:12;25.00;45.70
19359;DHT22;9815;52.334;20.890;2023-07-30T13:28:40;24.60;59.40
19359;DHT22;9815;52.334;20.890;2023-07-30T13:31:10;24.20;74.40
19359;DHT22;9815;52.334;20.890;2023-07-30T13:33:43;24.00;81.10
19359;DHT22;9815;52.334;20.890;2023-07-30T13:36:13;23.80;83.70
19359;DHT22;9815;52.334;20.890;2023-07-30T13:38:41;23.70;90.20
19359;DHT22;9815;52.334;20.890;2023-07-30T13:41:10;23.70;99.90
19359;DHT22;9815;52.334;20.890;2023-07-30T13:43:38;23.70;99.90
19359;DHT22;9815;52.334;20.890;2023-07-30T13:46:07;23.80;98.30
19359;DHT22;9815;52.334;20.890;2023-07-30T13:48:37;23.90;99.90
19359;DHT22;9815;52.334;20.890;2023-07-30T13:51:05;23.90;96.20
19359;DHT22;9815;52.334;20.890;2023-07-30T13:53:34;23.90;96.10
19359;DHT22;9815;52.334;20.890;2023-07-30T13:56:05;23.90;99.90
19359;DHT22;9815;52.334;20.890;2023-07-30T13:58:33;23.90;98.40
19359;DHT22;9815;52.334;20.890;2023-07-30T14:01:02;23.90;99.90
19359;DHT22;9815;52.334;20.890;2023-07-30T14:03:30;24.00;99.90
19359;DHT22;9815;52.334;20.890;2023-07-30T14:06:00;24.10;99.90
19359;DHT22;9815;52.334;20.890;2023-07-30T14:08:28;24.10;99.90
19359;DHT22;9815;52.334;20.890;2023-07-30T14:10:56;24.20;97.70
19359;DHT22;9815;52.334;20.890;2023-07-30T14:13:25;24.50;83.60
19359;DHT22;9815;52.334;20.890;2023-07-30T14:15:55;24.90;92.60
19359;DHT22;9815;52.334;20.890;2023-07-30T14:18:24;25.20;86.70
19359;DHT22;9815;52.334;20.890;2023-07-30T14:20:52;25.30;78.50
19359;DHT22;9815;52.334;20.890;2023-07-30T14:23:22;25.30;77.40
19359;DHT22;9815;52.334;20.890;2023-07-30T14:25:51;25.20;81.60
19359;DHT22;9815;52.334;20.890;2023-07-30T14:28:19;25.10;79.00
19359;DHT22;9815;52.334;20.890;2023-07-30T14:30:48;25.50;70.60
19359;DHT22;9815;52.334;20.890;2023-07-30T14:33:16;26.00;56.00
19359;DHT22;9815;52.334;20.890;2023-07-30T14:35:44;26.10;53.00
19359;DHT22;9815;52.334;20.890;2023-07-30T14:38:13;26.00;46.80
19359;DHT22;9815;52.334;20.890;2023-07-30T14:40:44;25.90;56.00
19359;DHT22;9815;52.334;20.890;2023-07-30T14:43:12;25.70;56.20
19359;DHT22;9815;52.334;20.890;2023-07-30T14:45:40;25.50;52.80
19359;DHT22;9815;52.334;20.890;2023-07-30T14:48:08;25.30;64.20
19359;DHT22;9815;52.334;20.890;2023-07-30T14:50:37;25.20;71.40
19359;DHT22;9815;52.334;20.890;2023-07-30T14:53:05;25.10;76.00
19359;DHT22;9815;52.334;20.890;2023-07-30T14:55:33;25.00;80.80
19359;DHT22;9815;52.334;20.890;2023-07-30T14:58:03;25.10;89.40
19359;DHT22;9815;52.334;20.890;2023-07-30T15:00:31;25.50;79.00
19359;DHT22;9815;52.334;20.890;2023-07-30T15:02:59;25.60;66.20
19359;DHT22;9815;52.334;20.890;2023-07-30T15:05:28;25.60;53.00
19359;DHT22;9815;52.334;20.890;2023-07-30T15:07:56;25.60;52.90
19359;DHT22;9815;52.334;20.890;2023-07-30T15:10:25;25.60;50.40
19359;DHT22;9815;52.334;20.890;2023-07-30T15:12:53;25.60;54.80
19359;DHT22;9815;52.334;20.890;2023-07-30T15:15:23;25.90;54.40
19359;DHT22;9815;52.334;20.890;2023-07-30T15:17:51;26.30;53.30
19359;DHT22;9815;52.334;20.890;2023-07-30T15:20:20;26.50;52.40
19359;DHT22;9815;52.334;20.890;2023-07-30T15:22:48;26.60;43.20
19359;DHT22;9815;52.334;20.890;2023-07-30T15:25:18;26.60;43.40
19359;DHT22;9815;52.334;20.890;2023-07-30T15:27:46;26.60;45.80
19359;DHT22;9815;52.334;20.890;2023-07-30T15:30:14;26.90;42.90
19359;DHT22;9815;52.334;20.890;2023-07-30T15:32:44;27.10;44.10
19359;DHT22;9815;52.334;20.890;2023-07-30T15:35:14;26.90;38.90
19359;DHT22;9815;52.334;20.890;2023-07-30T15:37:43;26.60;42.00
19359;DHT22;9815;52.334;20.890;2023-07-30T15:40:12;26.40;43.10
19359;DHT22;9815;52.334;20.890;2023-07-30T15:42:41;26.10;47.90